If you wish to contribute or participate in the discussions about articles you are invited to join SKYbrary as a registered user

 Actions

Bangkok/Don Mueang International Airport

From SKYbrary Wiki

VTBD
Airport
ICAO: VTBD – IATA: DMK
Summary
Name Bangkok/Don Mueang International Airport
Region Asia and Pacific
Territory Thailand TH.gif
Location Don Mueang, Bangkok
Serving Bangkok
Elevation 2.743 m
9 ft
9 ft2.743 m
Coordinates 13° 54' 50.45" N, 100° 36' 14.33" E
Runways
Designator Length Width Surface ROPS
03L/21R 3700 m12,139.108 ft
60 m196.85 ft
ASP yes/yes
03R/21L 3500 m11,482.94 ft
45 m147.638 ft
ASP yes/yes


METAR
Observation VTBD 211600Z 19007KT 9999 FEW020 29/25 Q1011 NOSIG
Station Don Muang
Date/Time 21 March 2019 16:00:00
Wind direction 190°
Wind speed 07 kts
Lowest cloud amount few clouds
Temperature 29°C
Dew point 25°C
Humidity 79%
QNH 1011 hPa
Weather condition n/a

Bangkok/Don Mueang International Airport

ICAO: VTBD IATA: DMK

Description

International airport serving the city of Bangkok.

Climatology

Tropical Savanna climate (Köppen climate classification Aw) - monthly mean temperatures above 18°C64.4 °F
291.15 K
524.07 °R
, and a pronounced dry season. A Tropical Savanna climate has more pronounced dry seasons than a Tropical Monsoon climate.

Maps

Terrain

Loading map...

Airport Layout

Loading map...


Accidents & Serious Incidents at or in vicinity of VTBD

None on SKYbrary